sensor_id;sensor_type;location;lat;lon;timestamp;temperature;humidity
3067;DHT22;1544;48.834;9.194;2024-01-07T00:00:34;7.10;59.60
3067;DHT22;1544;48.834;9.194;2024-01-07T00:03:10;7.10;59.60
3067;DHT22;1544;48.834;9.194;2024-01-07T00:05:46;7.20;59.10
3067;DHT22;1544;48.834;9.194;2024-01-07T00:08:23;7.20;58.80
3067;DHT22;1544;48.834;9.194;2024-01-07T00:10:59;7.20;58.90
3067;DHT22;1544;48.834;9.194;2024-01-07T00:13:36;7.20;58.90
3067;DHT22;1544;48.834;9.194;2024-01-07T00:16:12;7.10;58.60
3067;DHT22;1544;48.834;9.194;2024-01-07T00:18:48;7.10;58.70
3067;DHT22;1544;48.834;9.194;2024-01-07T00:21:24;7.10;58.90
3067;DHT22;1544;48.834;9.194;2024-01-07T00:24:00;7.10;59.00
3067;DHT22;1544;48.834;9.194;2024-01-07T00:26:36;7.10;59.10
3067;DHT22;1544;48.834;9.194;2024-01-07T00:29:12;7.10;59.30
3067;DHT22;1544;48.834;9.194;2024-01-07T00:31:48;7.10;59.20
3067;DHT22;1544;48.834;9.194;2024-01-07T00:34:24;7.10;59.30
3067;DHT22;1544;48.834;9.194;2024-01-07T00:37:00;7.10;59.50
3067;DHT22;1544;48.834;9.194;2024-01-07T00:39:36;7.20;59.40
3067;DHT22;1544;48.834;9.194;2024-01-07T00:42:12;7.10;59.10
3067;DHT22;1544;48.834;9.194;2024-01-07T00:44:48;7.10;58.70
3067;DHT22;1544;48.834;9.194;2024-01-07T00:47:25;7.10;58.90
3067;DHT22;1544;48.834;9.194;2024-01-07T00:50:01;7.10;59.20
3067;DHT22;1544;48.834;9.194;2024-01-07T00:52:37;7.10;58.90
3067;DHT22;1544;48.834;9.194;2024-01-07T00:55:14;7.10;59.10
3067;DHT22;1544;48.834;9.194;2024-01-07T00:57:50;7.10;59.30
3067;DHT22;1544;48.834;9.194;2024-01-07T01:00:26;7.10;58.70
3067;DHT22;1544;48.834;9.194;2024-01-07T01:03:03;7.10;59.40
3067;DHT22;1544;48.834;9.194;2024-01-07T01:05:39;7.00;59.10
3067;DHT22;1544;48.834;9.194;2024-01-07T01:08:15;7.00;59.80
3067;DHT22;1544;48.834;9.194;2024-01-07T01:10:51;7.10;59.70
3067;DHT22;1544;48.834;9.194;2024-01-07T01:13:27;7.10;59.90
3067;DHT22;1544;48.834;9.194;2024-01-07T01:16:03;7.10;59.70
3067;DHT22;1544;48.834;9.194;2024-01-07T01:18:39;7.10;59.70
3067;DHT22;1544;48.834;9.194;2024-01-07T01:21:17;7.10;60.10
3067;DHT22;1544;48.834;9.194;2024-01-07T01:23:54;7.10;59.80
3067;DHT22;1544;48.834;9.194;2024-01-07T01:26:30;7.10;59.80
3067;DHT22;1544;48.834;9.194;2024-01-07T01:29:06;7.00;59.70
3067;DHT22;1544;48.834;9.194;2024-01-07T01:31:42;7.00;60.30
3067;DHT22;1544;48.834;9.194;2024-01-07T01:34:18;7.10;60.40
3067;DHT22;1544;48.834;9.194;2024-01-07T01:36:54;7.10;60.40
3067;DHT22;1544;48.834;9.194;2024-01-07T01:39:30;7.10;60.30
3067;DHT22;1544;48.834;9.194;2024-01-07T01:42:06;7.20;60.00
3067;DHT22;1544;48.834;9.194;2024-01-07T01:44:43;7.20;59.90
3067;DHT22;1544;48.834;9.194;2024-01-07T01:47:19;7.20;60.20
3067;DHT22;1544;48.834;9.194;2024-01-07T01:49:55;7.10;60.10
3067;DHT22;1544;48.834;9.194;2024-01-07T01:52:31;7.20;60.30
3067;DHT22;1544;48.834;9.194;2024-01-07T01:55:08;7.10;60.20
3067;DHT22;1544;48.834;9.194;2024-01-07T01:57:46;7.20;60.50
3067;DHT22;1544;48.834;9.194;2024-01-07T02:00:22;7.10;60.40
3067;DHT22;1544;48.834;9.194;2024-01-07T02:02:59;7.10;60.50
3067;DHT22;1544;48.834;9.194;2024-01-07T02:05:36;7.20;60.60
3067;DHT22;1544;48.834;9.194;2024-01-07T02:08:13;7.20;60.70
3067;DHT22;1544;48.834;9.194;2024-01-07T02:10:49;7.20;60.60
3067;DHT22;1544;48.834;9.194;2024-01-07T02:13:25;7.10;60.50
3067;DHT22;1544;48.834;9.194;2024-01-07T02:16:01;7.10;60.40
3067;DHT22;1544;48.834;9.194;2024-01-07T02:18:41;7.10;60.70
3067;DHT22;1544;48.834;9.194;2024-01-07T02:21:18;7.10;60.70
3067;DHT22;1544;48.834;9.194;2024-01-07T02:23:55;7.10;61.10
3067;DHT22;1544;48.834;9.194;2024-01-07T02:26:32;7.00;60.70
3067;DHT22;1544;48.834;9.194;2024-01-07T02:29:08;7.10;61.20
3067;DHT22;1544;48.834;9.194;2024-01-07T02:31:44;7.10;60.70
3067;DHT22;1544;48.834;9.194;2024-01-07T02:34:20;7.00;60.50
3067;DHT22;1544;48.834;9.194;2024-01-07T02:36:57;7.00;61.30
3067;DHT22;1544;48.834;9.194;2024-01-07T02:39:33;7.00;61.10
3067;DHT22;1544;48.834;9.194;2024-01-07T02:42:08;7.00;61.10
3067;DHT22;1544;48.834;9.194;2024-01-07T02:44:44;7.10;61.40
3067;DHT22;1544;48.834;9.194;2024-01-07T02:47:20;7.10;61.30
3067;DHT22;1544;48.834;9.194;2024-01-07T02:49:57;7.10;61.00
3067;DHT22;1544;48.834;9.194;2024-01-07T02:52:33;7.10;60.80
3067;DHT22;1544;48.834;9.194;2024-01-07T02:55:11;7.10;60.60
3067;DHT22;1544;48.834;9.194;2024-01-07T02:57:48;7.00;60.60
3067;DHT22;1544;48.834;9.194;2024-01-07T03:00:25;7.00;60.60
3067;DHT22;1544;48.834;9.194;2024-01-07T03:03:01;7.00;60.00
3067;DHT22;1544;48.834;9.194;2024-01-07T03:05:37;7.10;60.10
3067;DHT22;1544;48.834;9.194;2024-01-07T03:08:13;7.00;59.70
3067;DHT22;1544;48.834;9.194;2024-01-07T03:10:49;7.10;59.60
3067;DHT22;1544;48.834;9.194;2024-01-07T03:13:25;7.10;59.30
3067;DHT22;1544;48.834;9.194;2024-01-07T03:16:01;7.10;59.20
3067;DHT22;1544;48.834;9.194;2024-01-07T03:18:37;7.10;59.20
3067;DHT22;1544;48.834;9.194;2024-01-07T03:23:57;7.10;58.90
3067;DHT22;1544;48.834;9.194;2024-01-07T03:26:33;7.00;59.00
3067;DHT22;1544;48.834;9.194;2024-01-07T03:29:09;7.10;59.40
3067;DHT22;1544;48.834;9.194;2024-01-07T03:31:45;7.10;59.20
3067;DHT22;1544;48.834;9.194;2024-01-07T03:34:21;7.10;58.10
3067;DHT22;1544;48.834;9.194;2024-01-07T03:36:57;7.10;58.30
3067;DHT22;1544;48.834;9.194;2024-01-07T03:39:33;7.10;58.30
3067;DHT22;1544;48.834;9.194;2024-01-07T03:42:09;7.10;58.30
3067;DHT22;1544;48.834;9.194;2024-01-07T03:44:47;7.10;58.60
3067;DHT22;1544;48.834;9.194;2024-01-07T03:47:23;7.10;59.00
3067;DHT22;1544;48.834;9.194;2024-01-07T03:49:59;7.00;58.50
3067;DHT22;1544;48.834;9.194;2024-01-07T03:52:35;7.00;59.30
3067;DHT22;1544;48.834;9.194;2024-01-07T03:55:11;7.00;58.70
3067;DHT22;1544;48.834;9.194;2024-01-07T03:57:47;7.00;57.90
3067;DHT22;1544;48.834;9.194;2024-01-07T04:00:23;6.90;58.00
3067;DHT22;1544;48.834;9.194;2024-01-07T04:03:00;6.90;57.90
3067;DHT22;1544;48.834;9.194;2024-01-07T04:05:36;6.90;57.30
3067;DHT22;1544;48.834;9.194;2024-01-07T04:08:13;6.80;56.90
3067;DHT22;1544;48.834;9.194;2024-01-07T04:10:51;6.70;57.60
3067;DHT22;1544;48.834;9.194;2024-01-07T04:13:27;6.70;58.00
3067;DHT22;1544;48.834;9.194;2024-01-07T04:16:03;6.70;58.30
3067;DHT22;1544;48.834;9.194;2024-01-07T04:18:39;6.60;57.90
3067;DHT22;1544;48.834;9.194;2024-01-07T04:21:16;6.60;58.80
3067;DHT22;1544;48.834;9.194;2024-01-07T04:23:52;6.60;59.10
3067;DHT22;1544;48.834;9.194;2024-01-07T04:26:27;6.60;59.00
3067;DHT22;1544;48.834;9.194;2024-01-07T04:29:03;6.60;58.60
3067;DHT22;1544;48.834;9.194;2024-01-07T04:31:39;6.60;59.20
3067;DHT22;1544;48.834;9.194;2024-01-07T04:34:15;6.60;59.60
3067;DHT22;1544;48.834;9.194;2024-01-07T04:36:51;6.60;58.90
3067;DHT22;1544;48.834;9.194;2024-01-07T04:39:27;6.60;59.30
3067;DHT22;1544;48.834;9.194;2024-01-07T04:42:03;6.60;59.00
3067;DHT22;1544;48.834;9.194;2024-01-07T04:44:40;6.60;58.80
3067;DHT22;1544;48.834;9.194;2024-01-07T04:47:30;6.60;58.40
3067;DHT22;1544;48.834;9.194;2024-01-07T04:50:07;6.60;58.20
3067;DHT22;1544;48.834;9.194;2024-01-07T04:52:43;6.60;58.10
3067;DHT22;1544;48.834;9.194;2024-01-07T04:55:19;6.60;58.50
3067;DHT22;1544;48.834;9.194;2024-01-07T04:57:55;6.60;58.60
3067;DHT22;1544;48.834;9.194;2024-01-07T05:00:31;6.60;58.40
3067;DHT22;1544;48.834;9.194;2024-01-07T05:03:07;6.60;58.60
3067;DHT22;1544;48.834;9.194;2024-01-07T05:05:43;6.60;58.40
3067;DHT22;1544;48.834;9.194;2024-01-07T05:08:19;6.60;57.80
3067;DHT22;1544;48.834;9.194;2024-01-07T05:10:59;6.60;58.00
3067;DHT22;1544;48.834;9.194;2024-01-07T05:13:35;6.50;57.80
3067;DHT22;1544;48.834;9.194;2024-01-07T05:16:20;6.60;58.10
3067;DHT22;1544;48.834;9.194;2024-01-07T05:18:56;6.60;58.20
3067;DHT22;1544;48.834;9.194;2024-01-07T05:21:33;6.60;58.00
3067;DHT22;1544;48.834;9.194;2024-01-07T05:24:09;6.50;57.80
3067;DHT22;1544;48.834;9.194;2024-01-07T05:26:45;6.50;57.80
3067;DHT22;1544;48.834;9.194;2024-01-07T05:29:21;6.40;58.20
3067;DHT22;1544;48.834;9.194;2024-01-07T05:31:58;6.50;58.00
3067;DHT22;1544;48.834;9.194;2024-01-07T05:34:35;6.50;58.30
3067;DHT22;1544;48.834;9.194;2024-01-07T05:37:11;6.40;58.50
3067;DHT22;1544;48.834;9.194;2024-01-07T05:39:48;6.40;58.50
3067;DHT22;1544;48.834;9.194;2024-01-07T05:42:24;6.40;58.40
3067;DHT22;1544;48.834;9.194;2024-01-07T05:45:00;6.50;58.20
3067;DHT22;1544;48.834;9.194;2024-01-07T05:47:38;6.40;58.60
3067;DHT22;1544;48.834;9.194;2024-01-07T05:50:16;6.50;58.90
3067;DHT22;1544;48.834;9.194;2024-01-07T05:52:54;6.50;58.70
3067;DHT22;1544;48.834;9.194;2024-01-07T05:55:30;6.50;58.50
3067;DHT22;1544;48.834;9.194;2024-01-07T05:58:06;6.40;58.40
3067;DHT22;1544;48.834;9.194;2024-01-07T06:00:42;6.50;58.20
3067;DHT22;1544;48.834;9.194;2024-01-07T06:03:18;6.50;57.90
3067;DHT22;1544;48.834;9.194;2024-01-07T06:05:55;6.50;58.00
3067;DHT22;1544;48.834;9.194;2024-01-07T06:08:31;6.50;57.50
3067;DHT22;1544;48.834;9.194;2024-01-07T06:11:07;6.40;57.40
3067;DHT22;1544;48.834;9.194;2024-01-07T06:13:42;6.50;57.20
3067;DHT22;1544;48.834;9.194;2024-01-07T06:16:18;6.50;56.90
3067;DHT22;1544;48.834;9.194;2024-01-07T06:18:54;6.40;57.00
3067;DHT22;1544;48.834;9.194;2024-01-07T06:21:31;6.40;57.40
3067;DHT22;1544;48.834;9.194;2024-01-07T06:24:09;6.40;57.10
3067;DHT22;1544;48.834;9.194;2024-01-07T06:26:45;6.40;57.10
3067;DHT22;1544;48.834;9.194;2024-01-07T06:29:21;6.40;57.00
3067;DHT22;1544;48.834;9.194;2024-01-07T06:31:57;6.40;56.60
3067;DHT22;1544;48.834;9.194;2024-01-07T06:34:33;6.40;56.70
3067;DHT22;1544;48.834;9.194;2024-01-07T06:37:09;6.40;56.00
3067;DHT22;1544;48.834;9.194;2024-01-07T06:39:46;6.30;54.90
3067;DHT22;1544;48.834;9.194;2024-01-07T06:42:22;6.30;55.20
3067;DHT22;1544;48.834;9.194;2024-01-07T06:44:58;6.30;54.80
3067;DHT22;1544;48.834;9.194;2024-01-07T06:47:34;6.70;55.20
3067;DHT22;1544;48.834;9.194;2024-01-07T06:50:10;6.30;54.50
3067;DHT22;1544;48.834;9.194;2024-01-07T06:52:47;6.30;54.10
3067;DHT22;1544;48.834;9.194;2024-01-07T06:55:23;6.40;53.70
3067;DHT22;1544;48.834;9.194;2024-01-07T06:57:59;6.30;52.60
3067;DHT22;1544;48.834;9.194;2024-01-07T07:00:36;6.30;51.00
3067;DHT22;1544;48.834;9.194;2024-01-07T07:03:12;6.30;50.20
3067;DHT22;1544;48.834;9.194;2024-01-07T07:05:48;6.30;49.00
3067;DHT22;1544;48.834;9.194;2024-01-07T07:08:24;6.20;48.60
3067;DHT22;1544;48.834;9.194;2024-01-07T07:11:01;6.30;47.90
3067;DHT22;1544;48.834;9.194;2024-01-07T07:13:37;6.20;47.30
3067;DHT22;1544;48.834;9.194;2024-01-07T07:16:13;6.20;47.20
3067;DHT22;1544;48.834;9.194;2024-01-07T07:18:49;6.20;46.90
3067;DHT22;1544;48.834;9.194;2024-01-07T07:21:26;6.20;46.00
3067;DHT22;1544;48.834;9.194;2024-01-07T07:24:04;6.20;45.20
3067;DHT22;1544;48.834;9.194;2024-01-07T07:26:40;6.10;44.70
3067;DHT22;1544;48.834;9.194;2024-01-07T07:29:16;6.10;44.40
3067;DHT22;1544;48.834;9.194;2024-01-07T07:31:52;6.10;44.20
3067;DHT22;1544;48.834;9.194;2024-01-07T07:34:28;6.00;44.00
3067;DHT22;1544;48.834;9.194;2024-01-07T07:37:05;6.00;44.10
3067;DHT22;1544;48.834;9.194;2024-01-07T07:39:41;6.00;44.00
3067;DHT22;1544;48.834;9.194;2024-01-07T07:42:17;6.00;44.10
3067;DHT22;1544;48.834;9.194;2024-01-07T07:44:53;6.10;44.30
3067;DHT22;1544;48.834;9.194;2024-01-07T07:47:29;6.10;43.50
3067;DHT22;1544;48.834;9.194;2024-01-07T07:50:06;6.00;42.90
3067;DHT22;1544;48.834;9.194;2024-01-07T07:52:43;6.10;43.30
3067;DHT22;1544;48.834;9.194;2024-01-07T07:55:21;6.10;43.30
3067;DHT22;1544;48.834;9.194;2024-01-07T07:57:57;6.10;43.20
3067;DHT22;1544;48.834;9.194;2024-01-07T08:00:33;6.20;43.20
3067;DHT22;1544;48.834;9.194;2024-01-07T08:03:09;6.20;43.00
3067;DHT22;1544;48.834;9.194;2024-01-07T08:05:45;6.10;42.90
3067;DHT22;1544;48.834;9.194;2024-01-07T08:08:22;6.20;43.00
3067;DHT22;1544;48.834;9.194;2024-01-07T08:10:57;6.10;42.70
3067;DHT22;1544;48.834;9.194;2024-01-07T08:13:35;6.20;43.00
3067;DHT22;1544;48.834;9.194;2024-01-07T08:16:13;6.20;42.80
3067;DHT22;1544;48.834;9.194;2024-01-07T08:18:50;6.20;42.40
3067;DHT22;1544;48.834;9.194;2024-01-07T08:21:28;6.20;42.20
3067;DHT22;1544;48.834;9.194;2024-01-07T08:24:05;6.10;41.90
3067;DHT22;1544;48.834;9.194;2024-01-07T08:26:42;6.10;41.70
3067;DHT22;1544;48.834;9.194;2024-01-07T08:29:19;6.20;41.70
3067;DHT22;1544;48.834;9.194;2024-01-07T08:31:57;6.10;41.40
3067;DHT22;1544;48.834;9.194;2024-01-07T08:34:34;6.10;41.40
3067;DHT22;1544;48.834;9.194;2024-01-07T08:37:11;6.00;41.40
3067;DHT22;1544;48.834;9.194;2024-01-07T08:39:47;6.00;41.40
3067;DHT22;1544;48.834;9.194;2024-01-07T08:42:23;6.00;41.40
3067;DHT22;1544;48.834;9.194;2024-01-07T08:45:04;6.00;41.70
3067;DHT22;1544;48.834;9.194;2024-01-07T08:47:41;6.10;42.20
3067;DHT22;1544;48.834;9.194;2024-01-07T08:50:20;6.00;41.60
3067;DHT22;1544;48.834;9.194;2024-01-07T08:52:56;6.10;41.90
3067;DHT22;1544;48.834;9.194;2024-01-07T08:55:32;6.10;41.80
3067;DHT22;1544;48.834;9.194;2024-01-07T08:58:08;6.10;41.10
3067;DHT22;1544;48.834;9.194;2024-01-07T09:00:44;6.10;40.80
3067;DHT22;1544;48.834;9.194;2024-01-07T09:03:20;6.10;40.70
3067;DHT22;1544;48.834;9.194;2024-01-07T09:05:56;6.10;40.60
3067;DHT22;1544;48.834;9.194;2024-01-07T09:08:33;6.10;40.10
3067;DHT22;1544;48.834;9.194;2024-01-07T09:11:10;6.10;39.90
3067;DHT22;1544;48.834;9.194;2024-01-07T09:13:48;6.20;39.50
3067;DHT22;1544;48.834;9.194;2024-01-07T09:16:24;6.20;39.30
3067;DHT22;1544;48.834;9.194;2024-01-07T09:19:00;6.20;39.10
3067;DHT22;1544;48.834;9.194;2024-01-07T09:21:37;6.30;39.20
3067;DHT22;1544;48.834;9.194;2024-01-07T09:24:14;6.30;38.50
3067;DHT22;1544;48.834;9.194;2024-01-07T09:26:50;6.30;38.60
3067;DHT22;1544;48.834;9.194;2024-01-07T09:29:27;6.30;38.80
3067;DHT22;1544;48.834;9.194;2024-01-07T09:32:04;6.40;38.70
3067;DHT22;1544;48.834;9.194;2024-01-07T09:34:40;6.40;38.50
3067;DHT22;1544;48.834;9.194;2024-01-07T09:37:17;6.40;38.40
3067;DHT22;1544;48.834;9.194;2024-01-07T09:39:53;6.50;38.00
3067;DHT22;1544;48.834;9.194;2024-01-07T09:42:29;6.40;37.70
3067;DHT22;1544;48.834;9.194;2024-01-07T09:45:06;6.50;37.60
3067;DHT22;1544;48.834;9.194;2024-01-07T09:47:44;6.40;37.30
3067;DHT22;1544;48.834;9.194;2024-01-07T09:50:22;6.40;37.30
3067;DHT22;1544;48.834;9.194;2024-01-07T09:52:58;6.40;37.10
3067;DHT22;1544;48.834;9.194;2024-01-07T09:55:47;6.30;36.80
3067;DHT22;1544;48.834;9.194;2024-01-07T09:58:28;6.30;36.90
3067;DHT22;1544;48.834;9.194;2024-01-07T10:01:05;6.30;37.10
3067;DHT22;1544;48.834;9.194;2024-01-07T10:03:42;6.30;37.20
3067;DHT22;1544;48.834;9.194;2024-01-07T10:06:19;6.30;36.90
3067;DHT22;1544;48.834;9.194;2024-01-07T10:08:56;6.30;37.10
3067;DHT22;1544;48.834;9.194;2024-01-07T10:11:32;6.20;37.30
3067;DHT22;1544;48.834;9.194;2024-01-07T10:14:09;6.30;37.20
3067;DHT22;1544;48.834;9.194;2024-01-07T10:16:45;6.30;37.00
3067;DHT22;1544;48.834;9.194;2024-01-07T10:19:22;6.20;37.00
3067;DHT22;1544;48.834;9.194;2024-01-07T10:22:00;6.10;36.20
3067;DHT22;1544;48.834;9.194;2024-01-07T10:24:40;6.10;36.50
3067;DHT22;1544;48.834;9.194;2024-01-07T10:27:17;6.10;36.50
3067;DHT22;1544;48.834;9.194;2024-01-07T10:29:53;6.10;36.20
3067;DHT22;1544;48.834;9.194;2024-01-07T10:32:30;6.10;36.20
3067;DHT22;1544;48.834;9.194;2024-01-07T10:35:08;6.00;36.10
3067;DHT22;1544;48.834;9.194;2024-01-07T10:37:48;6.10;36.20
3067;DHT22;1544;48.834;9.194;2024-01-07T10:40:26;6.20;36.50
3067;DHT22;1544;48.834;9.194;2024-01-07T10:43:04;6.20;36.40
3067;DHT22;1544;48.834;9.194;2024-01-07T10:45:40;6.20;36.40
3067;DHT22;1544;48.834;9.194;2024-01-07T10:48:18;6.30;36.40
3067;DHT22;1544;48.834;9.194;2024-01-07T10:50:55;6.20;35.90
3067;DHT22;1544;48.834;9.194;2024-01-07T10:53:34;6.20;35.60
3067;DHT22;1544;48.834;9.194;2024-01-07T10:56:13;6.20;35.80
3067;DHT22;1544;48.834;9.194;2024-01-07T10:58:54;6.30;35.90
3067;DHT22;1544;48.834;9.194;2024-01-07T11:01:30;6.30;35.80
3067;DHT22;1544;48.834;9.194;2024-01-07T11:04:23;6.30;35.70
3067;DHT22;1544;48.834;9.194;2024-01-07T11:07:44;6.20;35.50
3067;DHT22;1544;48.834;9.194;2024-01-07T11:10:18;6.30;35.80
3067;DHT22;1544;48.834;9.194;2024-01-07T11:12:56;6.30;35.90
3067;DHT22;1544;48.834;9.194;2024-01-07T11:18:26;6.30;35.20
3067;DHT22;1544;48.834;9.194;2024-01-07T11:21:05;6.20;35.20
3067;DHT22;1544;48.834;9.194;2024-01-07T11:23:44;6.20;35.30
3067;DHT22;1544;48.834;9.194;2024-01-07T11:26:22;6.20;35.10
3067;DHT22;1544;48.834;9.194;2024-01-07T11:28:58;6.20;35.30
3067;DHT22;1544;48.834;9.194;2024-01-07T11:34:41;6.10;35.30
3067;DHT22;1544;48.834;9.194;2024-01-07T11:37:25;6.10;35.30
3067;DHT22;1544;48.834;9.194;2024-01-07T11:40:06;6.00;35.10
3067;DHT22;1544;48.834;9.194;2024-01-07T11:42:45;5.90;34.90
3067;DHT22;1544;48.834;9.194;2024-01-07T11:45:21;5.90;35.50
3067;DHT22;1544;48.834;9.194;2024-01-07T11:47:57;5.80;35.10
3067;DHT22;1544;48.834;9.194;2024-01-07T11:50:35;5.80;35.30
3067;DHT22;1544;48.834;9.194;2024-01-07T11:53:14;5.70;35.10
3067;DHT22;1544;48.834;9.194;2024-01-07T11:55:50;5.70;35.20
3067;DHT22;1544;48.834;9.194;2024-01-07T11:58:26;5.70;35.40
3067;DHT22;1544;48.834;9.194;2024-01-07T12:01:01;5.70;35.40
3067;DHT22;1544;48.834;9.194;2024-01-07T12:03:39;5.80;35.40
3067;DHT22;1544;48.834;9.194;2024-01-07T12:06:19;5.80;35.30
3067;DHT22;1544;48.834;9.194;2024-01-07T12:08:55;5.70;35.70
3067;DHT22;1544;48.834;9.194;2024-01-07T12:11:31;5.70;35.40
3067;DHT22;1544;48.834;9.194;2024-01-07T12:14:08;5.70;35.40
3067;DHT22;1544;48.834;9.194;2024-01-07T12:16:46;5.80;35.40
3067;DHT22;1544;48.834;9.194;2024-01-07T12:19:22;5.70;35.20
3067;DHT22;1544;48.834;9.194;2024-01-07T12:22:04;5.70;35.40
3067;DHT22;1544;48.834;9.194;2024-01-07T12:24:42;5.70;35.50
3067;DHT22;1544;48.834;9.194;2024-01-07T12:27:18;5.70;35.40
3067;DHT22;1544;48.834;9.194;2024-01-07T12:29:59;5.70;35.60
3067;DHT22;1544;48.834;9.194;2024-01-07T12:32:36;5.70;35.70
3067;DHT22;1544;48.834;9.194;2024-01-07T12:35:12;5.70;35.60
3067;DHT22;1544;48.834;9.194;2024-01-07T12:37:49;5.60;35.70
3067;DHT22;1544;48.834;9.194;2024-01-07T12:40:25;5.50;35.60
3067;DHT22;1544;48.834;9.194;2024-01-07T12:43:03;5.50;35.80
3067;DHT22;1544;48.834;9.194;2024-01-07T12:45:39;6.20;36.30
3067;DHT22;1544;48.834;9.194;2024-01-07T12:48:15;5.50;35.90
3067;DHT22;1544;48.834;9.194;2024-01-07T12:50:51;5.60;36.00
3067;DHT22;1544;48.834;9.194;2024-01-07T12:53:27;5.60;36.00
3067;DHT22;1544;48.834;9.194;2024-01-07T12:56:04;5.50;35.70
3067;DHT22;1544;48.834;9.194;2024-01-07T12:58:41;5.40;35.50
3067;DHT22;1544;48.834;9.194;2024-01-07T13:01:17;5.30;35.40
3067;DHT22;1544;48.834;9.194;2024-01-07T13:03:53;5.30;35.60
3067;DHT22;1544;48.834;9.194;2024-01-07T13:06:29;5.30;35.70
3067;DHT22;1544;48.834;9.194;2024-01-07T13:09:05;5.20;35.80
3067;DHT22;1544;48.834;9.194;2024-01-07T13:11:42;5.20;35.80
3067;DHT22;1544;48.834;9.194;2024-01-07T13:14:19;5.10;35.70
3067;DHT22;1544;48.834;9.194;2024-01-07T13:16:55;5.10;35.70
3067;DHT22;1544;48.834;9.194;2024-01-07T13:19:31;5.10;35.80
3067;DHT22;1544;48.834;9.194;2024-01-07T13:22:07;5.00;35.60
3067;DHT22;1544;48.834;9.194;2024-01-07T13:24:43;5.00;35.70
3067;DHT22;1544;48.834;9.194;2024-01-07T13:27:20;5.00;35.80
3067;DHT22;1544;48.834;9.194;2024-01-07T13:29:58;4.90;35.40
3067;DHT22;1544;48.834;9.194;2024-01-07T13:32:35;4.90;35.70
3067;DHT22;1544;48.834;9.194;2024-01-07T13:35:13;4.90;35.70
3067;DHT22;1544;48.834;9.194;2024-01-07T13:37:51;4.90;35.40
3067;DHT22;1544;48.834;9.194;2024-01-07T13:40:27;4.80;35.10
3067;DHT22;1544;48.834;9.194;2024-01-07T13:43:03;4.70;35.10
3067;DHT22;1544;48.834;9.194;2024-01-07T13:45:39;4.70;35.20
3067;DHT22;1544;48.834;9.194;2024-01-07T13:48:16;4.70;35.20
3067;DHT22;1544;48.834;9.194;2024-01-07T13:50:53;4.60;35.00
3067;DHT22;1544;48.834;9.194;2024-01-07T13:53:30;4.50;35.10
3067;DHT22;1544;48.834;9.194;2024-01-07T13:56:06;4.50;35.20
3067;DHT22;1544;48.834;9.194;2024-01-07T13:58:43;4.50;35.30
3067;DHT22;1544;48.834;9.194;2024-01-07T14:01:25;4.40;35.20
3067;DHT22;1544;48.834;9.194;2024-01-07T14:04:01;4.40;35.30
3067;DHT22;1544;48.834;9.194;2024-01-07T14:06:38;4.40;35.70
3067;DHT22;1544;48.834;9.194;2024-01-07T14:09:14;4.30;35.30
3067;DHT22;1544;48.834;9.194;2024-01-07T14:11:50;4.30;35.40
3067;DHT22;1544;48.834;9.194;2024-01-07T14:14:28;4.20;35.30
3067;DHT22;1544;48.834;9.194;2024-01-07T14:17:04;4.20;35.20
3067;DHT22;1544;48.834;9.194;2024-01-07T14:19:40;4.30;35.30
3067;DHT22;1544;48.834;9.194;2024-01-07T14:22:16;4.20;35.40
3067;DHT22;1544;48.834;9.194;2024-01-07T14:24:52;4.20;35.40
3067;DHT22;1544;48.834;9.194;2024-01-07T14:27:28;4.20;35.50
3067;DHT22;1544;48.834;9.194;2024-01-07T14:30:04;4.20;35.30
3067;DHT22;1544;48.834;9.194;2024-01-07T14:32:41;4.20;35.40
3067;DHT22;1544;48.834;9.194;2024-01-07T14:35:17;4.20;35.60
3067;DHT22;1544;48.834;9.194;2024-01-07T14:37:53;4.20;35.70
3067;DHT22;1544;48.834;9.194;2024-01-07T14:40:29;4.20;35.80
3067;DHT22;1544;48.834;9.194;2024-01-07T14:43:05;4.20;35.80
3067;DHT22;1544;48.834;9.194;2024-01-07T14:45:41;4.20;35.90
3067;DHT22;1544;48.834;9.194;2024-01-07T14:48:18;4.10;35.50
3067;DHT22;1544;48.834;9.194;2024-01-07T14:50:54;4.10;35.70
3067;DHT22;1544;48.834;9.194;2024-01-07T14:53:30;4.10;35.80
3067;DHT22;1544;48.834;9.194;2024-01-07T14:56:07;4.10;36.00
3067;DHT22;1544;48.834;9.194;2024-01-07T14:58:42;4.10;35.80
3067;DHT22;1544;48.834;9.194;2024-01-07T15:01:19;4.00;35.80
3067;DHT22;1544;48.834;9.194;2024-01-07T15:03:55;4.10;35.80
3067;DHT22;1544;48.834;9.194;2024-01-07T15:06:39;4.00;35.70
3067;DHT22;1544;48.834;9.194;2024-01-07T15:09:19;4.10;35.80
3067;DHT22;1544;48.834;9.194;2024-01-07T15:11:57;4.10;36.00
3067;DHT22;1544;48.834;9.194;2024-01-07T15:14:35;4.10;36.20
3067;DHT22;1544;48.834;9.194;2024-01-07T15:17:12;4.10;36.40
3067;DHT22;1544;48.834;9.194;2024-01-07T15:19:48;4.00;36.50
3067;DHT22;1544;48.834;9.194;2024-01-07T15:22:24;3.90;36.50
3067;DHT22;1544;48.834;9.194;2024-01-07T15:25:00;3.90;37.00
3067;DHT22;1544;48.834;9.194;2024-01-07T15:27:36;3.80;37.20
3067;DHT22;1544;48.834;9.194;2024-01-07T15:30:13;3.80;37.50
3067;DHT22;1544;48.834;9.194;2024-01-07T15:32:53;3.80;37.70
3067;DHT22;1544;48.834;9.194;2024-01-07T15:35:29;3.80;37.80
3067;DHT22;1544;48.834;9.194;2024-01-07T15:38:05;3.70;38.00
3067;DHT22;1544;48.834;9.194;2024-01-07T15:40:41;3.60;38.20
3067;DHT22;1544;48.834;9.194;2024-01-07T15:43:18;3.60;38.50
3067;DHT22;1544;48.834;9.194;2024-01-07T15:45:54;3.60;38.80
3067;DHT22;1544;48.834;9.194;2024-01-07T15:48:31;3.60;39.10
3067;DHT22;1544;48.834;9.194;2024-01-07T15:51:07;3.50;39.10
3067;DHT22;1544;48.834;9.194;2024-01-07T15:53:43;3.50;39.30
3067;DHT22;1544;48.834;9.194;2024-01-07T15:56:19;3.50;39.50
3067;DHT22;1544;48.834;9.194;2024-01-07T15:58:55;3.40;39.60
3067;DHT22;1544;48.834;9.194;2024-01-07T16:01:31;3.30;39.80
3067;DHT22;1544;48.834;9.194;2024-01-07T16:04:07;3.30;40.00
3067;DHT22;1544;48.834;9.194;2024-01-07T16:06:46;3.30;40.10
3067;DHT22;1544;48.834;9.194;2024-01-07T16:09:24;3.20;40.00
3067;DHT22;1544;48.834;9.194;2024-01-07T16:12:01;3.20;40.40
3067;DHT22;1544;48.834;9.194;2024-01-07T16:14:38;3.20;40.80
3067;DHT22;1544;48.834;9.194;2024-01-07T16:17:14;3.10;40.80
3067;DHT22;1544;48.834;9.194;2024-01-07T16:19:50;3.00;41.00
3067;DHT22;1544;48.834;9.194;2024-01-07T16:22:27;3.00;41.30
3067;DHT22;1544;48.834;9.194;2024-01-07T16:25:04;3.00;41.50
3067;DHT22;1544;48.834;9.194;2024-01-07T16:27:42;3.00;42.00
3067;DHT22;1544;48.834;9.194;2024-01-07T16:30:18;3.10;42.30
3067;DHT22;1544;48.834;9.194;2024-01-07T16:32:54;3.10;42.50
3067;DHT22;1544;48.834;9.194;2024-01-07T16:35:31;3.10;42.60
3067;DHT22;1544;48.834;9.194;2024-01-07T16:38:07;3.10;42.60
3067;DHT22;1544;48.834;9.194;2024-01-07T16:40:44;3.00;42.70
3067;DHT22;1544;48.834;9.194;2024-01-07T16:43:20;2.90;42.60
3067;DHT22;1544;48.834;9.194;2024-01-07T16:45:57;2.90;42.90
3067;DHT22;1544;48.834;9.194;2024-01-07T16:48:33;2.90;43.10
3067;DHT22;1544;48.834;9.194;2024-01-07T16:51:13;2.90;43.40
3067;DHT22;1544;48.834;9.194;2024-01-07T16:53:50;2.90;43.50
3067;DHT22;1544;48.834;9.194;2024-01-07T16:56:26;2.90;43.60
3067;DHT22;1544;48.834;9.194;2024-01-07T16:59:02;2.90;43.80
3067;DHT22;1544;48.834;9.194;2024-01-07T17:01:38;2.90;43.80
3067;DHT22;1544;48.834;9.194;2024-01-07T17:04:14;2.80;43.90
3067;DHT22;1544;48.834;9.194;2024-01-07T17:06:50;2.80;44.00
3067;DHT22;1544;48.834;9.194;2024-01-07T17:09:26;2.80;44.00
3067;DHT22;1544;48.834;9.194;2024-01-07T17:12:02;2.80;44.00
3067;DHT22;1544;48.834;9.194;2024-01-07T17:14:40;2.80;44.20
3067;DHT22;1544;48.834;9.194;2024-01-07T17:17:16;2.80;44.20
3067;DHT22;1544;48.834;9.194;2024-01-07T17:19:53;2.80;44.20
3067;DHT22;1544;48.834;9.194;2024-01-07T17:22:29;2.70;44.10
3067;DHT22;1544;48.834;9.194;2024-01-07T17:25:06;2.60;44.20
3067;DHT22;1544;48.834;9.194;2024-01-07T17:27:42;3.20;45.00